Time;durP1;ratioP1;P1;durP2;ratioP2;P2;SDS_P1;SDS_P2;PMS_P1;PMS_P2;Temp;Humidity;BMP_temperature;BMP_pressure;BME280_temperature;BME280_humidity;BME280_pressure;Samples;Min_cycle;Max_cycle;Signal;HPM_P1;HPM_P2
2022/11/23 00:00:07;;;;;;;9.03;2.03;;;;;;;;;;508024;28;1220;-61
2022/11/23 00:00:22;;;;;;;6.97;2.05;;;;;;;;;;506832;28;1617;-61
2022/11/23 00:00:37;;;;;;;7.72;1.92;;;;;;;;;;506340;28;1922;-61
2022/11/23 00:00:53;;;;;;;7.47;1.73;;;;;;;;;;506132;29;1187;-61
2022/11/23 00:01:18;;;;;;;7.10;1.80;;;;;;;;;;507862;29;951;-61
2022/11/23 00:01:36;;;;;;;7.13;1.85;;;;;;;;;;506855;29;1252;-61
2022/11/23 00:01:51;;;;;;;8.02;1.73;;;;;;;;;;506139;29;1101;-61
2022/11/23 00:02:06;;;;;;;7.27;1.70;;;;;;;;;;506491;29;1225;-61
2022/11/23 00:02:21;;;;;;;8.15;1.70;;;;;;;;;;507849;29;1022;-60
2022/11/23 00:02:37;;;;;;;8.57;1.80;;;;;;;;;;507022;29;1235;-61
2022/11/23 00:02:53;;;;;;;7.03;1.87;;;;;;;;;;510386;28;1129;-61
2022/11/23 00:03:13;;;;;;;6.00;1.75;;;;;;;;;;512322;28;1113;-61
2022/11/23 00:03:28;;;;;;;5.90;1.75;;;;;;;;;;512164;28;1461;-60
2022/11/23 00:03:46;;;;;;;5.60;1.70;;;;;;;;;;511201;28;1211;-61
2022/11/23 00:04:07;;;;;;;6.18;1.80;;;;;;;;;;511915;28;1366;-61
2022/11/23 00:04:24;;;;;;;6.68;1.80;;;;;;;;;;511643;28;1076;-61
2022/11/23 00:04:39;;;;;;;6.10;1.70;;;;;;;;;;511486;28;1115;-60
2022/11/23 00:04:55;;;;;;;6.70;1.73;;;;;;;;;;512215;28;1350;-61
2022/11/23 00:05:10;;;;;;;7.47;1.83;;;;;;;;;;511407;28;1300;-61
2022/11/23 00:05:27;;;;;;;6.78;1.80;;;;;;;;;;510655;28;1237;-61
2022/11/23 00:05:42;;;;;;;6.50;1.80;;;;;;;;;;510369;28;1263;-61
2022/11/23 00:06:01;;;;;;;7.67;1.70;;;;;;;;;;507924;28;1294;-61
2022/11/23 00:06:17;;;;;;;6.63;1.90;;;;;;;;;;508308;28;1379;-61
2022/11/23 00:06:33;;;;;;;8.32;2.08;;;;;;;;;;507539;28;1481;-61
2022/11/23 00:06:48;;;;;;;8.85;1.88;;;;;;;;;;510726;28;1375;-61
2022/11/23 00:07:03;;;;;;;9.03;1.73;;;;;;;;;;508886;28;1333;-61
2022/11/23 00:07:19;;;;;;;8.60;1.70;;;;;;;;;;509825;28;1097;-60
2022/11/23 00:07:34;;;;;;;8.37;1.83;;;;;;;;;;506546;28;1183;-61
2022/11/23 00:07:49;;;;;;;8.93;1.98;;;;;;;;;;507206;29;1228;-61
2022/11/23 00:08:05;;;;;;;7.10;2.03;;;;;;;;;;504443;29;1343;-62
2022/11/23 00:08:20;;;;;;;6.38;1.83;;;;;;;;;;505098;29;1130;-61
2022/11/23 00:08:35;;;;;;;7.33;1.93;;;;;;;;;;504797;29;1442;-61
2022/11/23 00:08:52;;;;;;;8.13;2.00;;;;;;;;;;504185;29;1261;-61
2022/11/23 00:09:09;;;;;;;7.57;1.77;;;;;;;;;;506553;29;1153;-61
2022/11/23 00:09:25;;;;;;;8.50;1.80;;;;;;;;;;508766;28;1455;-61
2022/11/23 00:09:40;;;;;;;7.93;1.90;;;;;;;;;;505525;29;1224;-61
2022/11/23 00:09:55;;;;;;;6.95;1.70;;;;;;;;;;508061;28;1038;-61
2022/11/23 00:10:10;;;;;;;6.27;1.63;;;;;;;;;;510539;28;1195;-61
2022/11/23 00:10:26;;;;;;;5.30;1.60;;;;;;;;;;508307;29;1303;-61
2022/11/23 00:10:41;;;;;;;5.65;1.50;;;;;;;;;;508795;29;1254;-61
2022/11/23 00:10:58;;;;;;;6.87;1.60;;;;;;;;;;507830;29;1178;-61
2022/11/23 00:11:13;;;;;;;6.95;1.80;;;;;;;;;;508055;29;1289;-61
2022/11/23 00:11:29;;;;;;;6.23;1.87;;;;;;;;;;506691;29;1208;-61
2022/11/23 00:11:44;;;;;;;7.13;1.90;;;;;;;;;;508658;29;1372;-61
2022/11/23 00:12:00;;;;;;;8.43;1.83;;;;;;;;;;508458;29;1295;-61
2022/11/23 00:12:15;;;;;;;7.47;1.67;;;;;;;;;;508642;28;1312;-61
2022/11/23 00:12:30;;;;;;;7.97;1.60;;;;;;;;;;509275;28;1250;-61
2022/11/23 00:12:46;;;;;;;7.30;1.60;;;;;;;;;;508338;29;1466;-61
2022/11/23 00:13:01;;;;;;;6.53;1.67;;;;;;;;;;506642;29;1092;-61
2022/11/23 00:13:16;;;;;;;6.80;1.80;;;;;;;;;;508897;29;1144;-61
2022/11/23 00:13:34;;;;;;;6.13;1.80;;;;;;;;;;508391;29;1145;-61
2022/11/23 00:13:49;;;;;;;7.57;2.00;;;;;;;;;;508537;29;1033;-61
2022/11/23 00:14:05;;;;;;;5.88;1.70;;;;;;;;;;506749;29;1750;-61
2022/11/23 00:14:20;;;;;;;6.27;1.50;;;;;;;;;;509462;28;1573;-61
2022/11/23 00:14:36;;;;;;;8.03;1.50;;;;;;;;;;511147;28;1144;-61
2022/11/23 00:14:51;;;;;;;6.55;1.58;;;;;;;;;;512189;28;1875;-61
2022/11/23 00:15:07;;;;;;;5.33;1.67;;;;;;;;;;512268;28;1210;-61
2022/11/23 00:15:22;;;;;;;5.97;1.70;;;;;;;;;;508297;29;1399;-61
2022/11/23 00:15:39;;;;;;;6.10;1.70;;;;;;;;;;508217;29;1174;-61
2022/11/23 00:15:55;;;;;;;8.03;1.97;;;;;;;;;;508538;29;1349;-61
2022/11/23 00:16:16;;;;;;;8.53;2.00;;;;;;;;;;507465;29;1303;-61
2022/11/23 00:16:32;;;;;;;7.40;1.70;;;;;;;;;;507126;29;1042;-61
2022/11/23 00:16:47;;;;;;;7.50;1.75;;;;;;;;;;507585;28;1521;-61
2022/11/23 00:17:02;;;;;;;7.10;1.90;;;;;;;;;;506528;29;1282;-61
2022/11/23 00:17:17;;;;;;;7.87;1.80;;;;;;;;;;510271;28;1304;-61
2022/11/23 00:17:33;;;;;;;8.43;1.90;;;;;;;;;;509406;28;1205;-61
2022/11/23 00:17:48;;;;;;;8.30;1.77;;;;;;;;;;509088;28;1140;-61
2022/11/23 00:18:03;;;;;;;8.07;1.70;;;;;;;;;;508211;29;1240;-61
2022/11/23 00:18:19;;;;;;;6.93;1.70;;;;;;;;;;506975;29;1042;-61
2022/11/23 00:18:34;;;;;;;5.97;1.53;;;;;;;;;;507816;29;2479;-61
2022/11/23 00:18:57;;;;;;;6.23;1.70;;;;;;;;;;509071;29;1069;-61
2022/11/23 00:19:13;;;;;;;7.20;1.90;;;;;;;;;;508429;28;1121;-61
2022/11/23 00:19:28;;;;;;;6.47;1.60;;;;;;;;;;508812;29;1381;-61
2022/11/23 00:19:43;;;;;;;6.00;1.63;;;;;;;;;;507113;29;1110;-61
2022/11/23 00:19:58;;;;;;;7.17;1.70;;;;;;;;;;507502;28;1313;-61
2022/11/23 00:20:14;;;;;;;7.40;1.70;;;;;;;;;;510557;28;1220;-61
2022/11/23 00:20:29;;;;;;;6.47;1.70;;;;;;;;;;510120;28;1164;-61
2022/11/23 00:20:44;;;;;;;6.30;1.80;;;;;;;;;;510855;28;1972;-61
2022/11/23 00:21:05;;;;;;;7.33;1.90;;;;;;;;;;508223;28;1097;-61
2022/11/23 00:21:22;;;;;;;8.25;2.00;;;;;;;;;;507824;29;1455;-61
2022/11/23 00:21:37;;;;;;;7.75;1.95;;;;;;;;;;508655;29;1278;-61
2022/11/23 00:21:52;;;;;;;6.80;1.67;;;;;;;;;;504517;28;1195;-61
2022/11/23 00:22:07;;;;;;;7.55;1.60;;;;;;;;;;508104;29;1132;-61
2022/11/23 00:22:23;;;;;;;8.47;1.77;;;;;;;;;;508372;29;1176;-61
2022/11/23 00:22:38;;;;;;;7.70;1.80;;;;;;;;;;507877;28;1588;-61
2022/11/23 00:22:53;;;;;;;8.93;1.90;;;;;;;;;;506242;29;1157;-61
2022/11/23 00:23:08;;;;;;;9.02;2.00;;;;;;;;;;505517;29;1201;-61
2022/11/23 00:23:24;;;;;;;8.87;1.97;;;;;;;;;;508388;28;1171;-62
2022/11/23 00:23:39;;;;;;;8.27;1.90;;;;;;;;;;509816;28;1195;-61
2022/11/23 00:23:55;;;;;;;7.75;1.90;;;;;;;;;;510341;28;1227;-61
2022/11/23 00:24:11;;;;;;;7.23;1.80;;;;;;;;;;508034;28;1215;-62
2022/11/23 00:24:27;;;;;;;5.55;1.60;;;;;;;;;;505598;28;1410;-61
2022/11/23 00:24:42;;;;;;;7.47;1.90;;;;;;;;;;508234;28;1328;-61
2022/11/23 00:24:57;;;;;;;10.20;2.27;;;;;;;;;;510598;28;1132;-61
2022/11/23 00:25:12;;;;;;;9.15;2.00;;;;;;;;;;508038;28;1356;-61
2022/11/23 00:25:28;;;;;;;6.53;1.70;;;;;;;;;;509750;28;1145;-61
2022/11/23 00:25:45;;;;;;;7.47;1.80;;;;;;;;;;508030;28;1380;-61
2022/11/23 00:26:01;;;;;;;9.13;1.73;;;;;;;;;;510058;28;1034;-61
2022/11/23 00:26:17;;;;;;;8.10;1.60;;;;;;;;;;509579;28;1221;-61
2022/11/23 00:26:32;;;;;;;7.03;1.70;;;;;;;;;;509255;28;1446;-61
2022/11/23 00:26:48;;;;;;;7.33;1.77;;;;;;;;;;509114;28;1125;-61
2022/11/23 00:27:03;;;;;;;8.20;1.80;;;;;;;;;;509487;28;1042;-61
2022/11/23 00:27:18;;;;;;;7.20;1.97;;;;;;;;;;508357;28;1082;-61
2022/11/23 00:27:33;;;;;;;6.77;1.83;;;;;;;;;;509180;28;1263;-61
2022/11/23 00:27:49;;;;;;;7.87;1.80;;;;;;;;;;510981;28;1152;-61
2022/11/23 00:28:04;;;;;;;8.27;2.00;;;;;;;;;;509303;28;1163;-61
2022/11/23 00:28:19;;;;;;;7.80;1.80;;;;;;;;;;509093;28;1328;-61
2022/11/23 00:28:38;;;;;;;8.27;1.70;;;;;;;;;;508819;28;1196;-61
2022/11/23 00:28:53;;;;;;;8.45;1.83;;;;;;;;;;508536;28;1165;-61
2022/11/23 00:29:09;;;;;;;6.80;1.73;;;;;;;;;;509091;28;1262;-61
2022/11/23 00:29:24;;;;;;;6.00;1.67;;;;;;;;;;509492;28;1259;-61
2022/11/23 00:29:39;;;;;;;6.20;1.70;;;;;;;;;;510393;28;1156;-61
2022/11/23 00:29:54;;;;;;;5.50;1.67;;;;;;;;;;510232;28;1136;-61
2022/11/23 00:30:10;;;;;;;6.37;1.80;;;;;;;;;;508714;28;1398;-61
2022/11/23 00:30:26;;;;;;;7.43;1.90;;;;;;;;;;509215;28;1050;-61
2022/11/23 00:30:41;;;;;;;7.67;1.80;;;;;;;;;;511078;28;994;-61
2022/11/23 00:30:57;;;;;;;8.20;1.80;;;;;;;;;;510560;28;1207;-61
2022/11/23 00:31:18;;;;;;;7.35;1.60;;;;;;;;;;508440;29;1208;-61
2022/11/23 00:31:33;;;;;;;5.93;1.60;;;;;;;;;;507071;29;991;-61
2022/11/23 00:31:48;;;;;;;5.90;1.55;;;;;;;;;;507388;29;1222;-61
2022/11/23 00:32:04;;;;;;;7.37;1.73;;;;;;;;;;508811;29;1212;-61
2022/11/23 00:32:19;;;;;;;7.78;1.77;;;;;;;;;;506349;28;1149;-61
2022/11/23 00:32:34;;;;;;;7.20;1.70;;;;;;;;;;510594;28;1204;-62
2022/11/23 00:32:49;;;;;;;7.60;1.93;;;;;;;;;;510888;28;1199;-61
2022/11/23 00:33:05;;;;;;;8.10;2.03;;;;;;;;;;509389;28;1402;-61
2022/11/23 00:33:20;;;;;;;8.45;2.00;;;;;;;;;;510846;28;1456;-61
2022/11/23 00:33:36;;;;;;;8.67;1.90;;;;;;;;;;508064;28;1160;-61
2022/11/23 00:33:53;;;;;;;9.75;1.90;;;;;;;;;;512955;28;1285;-61
2022/11/23 00:34:08;;;;;;;9.20;1.75;;;;;;;;;;514807;28;1170;-61
2022/11/23 00:34:24;;;;;;;6.13;1.53;;;;;;;;;;512373;28;1303;-61
2022/11/23 00:34:39;;;;;;;6.10;1.55;;;;;;;;;;507879;28;1234;-61
2022/11/23 00:34:54;;;;;;;7.00;1.70;;;;;;;;;;509599;28;1443;-61
2022/11/23 00:35:10;;;;;;;7.70;1.70;;;;;;;;;;510676;28;1424;-61
2022/11/23 00:35:25;;;;;;;8.48;1.60;;;;;;;;;;510405;28;1088;-61
2022/11/23 00:35:40;;;;;;;8.50;1.63;;;;;;;;;;508570;29;1366;-61
2022/11/23 00:36:07;;;;;;;7.13;1.70;;;;;;;;;;507226;29;1311;-60
2022/11/23 00:36:23;;;;;;;7.05;1.63;;;;;;;;;;508581;28;1137;-61
2022/11/23 00:36:39;;;;;;;7.63;1.67;;;;;;;;;;510862;28;1136;-61
2022/11/23 00:36:54;;;;;;;7.00;1.63;;;;;;;;;;510952;28;1460;-60
2022/11/23 00:37:09;;;;;;;6.07;1.60;;;;;;;;;;509914;28;1211;-60
2022/11/23 00:37:25;;;;;;;7.20;1.80;;;;;;;;;;510511;28;1155;-60
2022/11/23 00:37:40;;;;;;;7.55;1.70;;;;;;;;;;509260;28;1159;-60
2022/11/23 00:37:55;;;;;;;6.17;1.40;;;;;;;;;;514201;28;1163;-61
2022/11/23 00:38:11;;;;;;;5.50;1.40;;;;;;;;;;514524;28;1300;-61
2022/11/23 00:38:27;;;;;;;6.60;1.65;;;;;;;;;;513318;28;1055;-60
2022/11/23 00:38:43;;;;;;;7.63;1.70;;;;;;;;;;513590;28;1198;-60
2022/11/23 00:38:58;;;;;;;7.78;1.70;;;;;;;;;;515341;28;1186;-60
2022/11/23 00:39:13;;;;;;;7.93;1.80;;;;;;;;;;514596;28;1413;-61
2022/11/23 00:39:29;;;;;;;7.53;1.73;;;;;;;;;;512786;28;1120;-61
2022/11/23 00:39:44;;;;;;;6.23;1.60;;;;;;;;;;512780;28;1329;-61
2022/11/23 00:39:59;;;;;;;5.83;1.50;;;;;;;;;;511377;28;1199;-61
2022/11/23 00:40:15;;;;;;;5.23;1.60;;;;;;;;;;512408;28;1046;-61
2022/11/23 00:40:30;;;;;;;5.40;1.50;;;;;;;;;;512491;28;970;-61
2022/11/23 00:40:45;;;;;;;5.20;1.30;;;;;;;;;;511427;28;2003;-61
2022/11/23 00:41:04;;;;;;;4.80;1.30;;;;;;;;;;512724;28;1144;-61
2022/11/23 00:41:22;;;;;;;6.78;1.52;;;;;;;;;;512455;28;1155;-61
2022/11/23 00:41:37;;;;;;;6.35;1.60;;;;;;;;;;512247;28;1297;-61
2022/11/23 00:41:52;;;;;;;5.60;1.60;;;;;;;;;;514853;28;1152;-61
2022/11/23 00:42:07;;;;;;;6.03;1.60;;;;;;;;;;513595;28;1219;-61
2022/11/23 00:42:23;;;;;;;7.97;1.70;;;;;;;;;;512818;28;1152;-61
2022/11/23 00:42:38;;;;;;;8.20;1.70;;;;;;;;;;511728;28;995;-61
2022/11/23 00:42:53;;;;;;;6.67;1.70;;;;;;;;;;510024;28;2697;-60
2022/11/23 00:43:08;;;;;;;6.13;1.67;;;;;;;;;;510483;28;2001;-60
2022/11/23 00:43:24;;;;;;;6.07;1.60;;;;;;;;;;510573;28;1329;-61
2022/11/23 00:43:39;;;;;;;6.80;1.67;;;;;;;;;;508473;28;1189;-61
2022/11/23 00:43:55;;;;;;;7.68;1.70;;;;;;;;;;510573;28;1216;-61
2022/11/23 00:44:10;;;;;;;7.57;1.73;;;;;;;;;;510433;28;1268;-61
2022/11/23 00:44:25;;;;;;;6.63;1.80;;;;;;;;;;513264;28;1064;-61
2022/11/23 00:44:40;;;;;;;7.40;1.73;;;;;;;;;;511653;28;1158;-61
2022/11/23 00:44:56;;;;;;;8.80;1.70;;;;;;;;;;513247;28;1220;-61
2022/11/23 00:45:11;;;;;;;7.53;1.67;;;;;;;;;;514373;28;1671;-60
2022/11/23 00:45:26;;;;;;;6.03;1.60;;;;;;;;;;513131;28;1419;-61
2022/11/23 00:45:42;;;;;;;5.65;1.58;;;;;;;;;;512368;28;1403;-61
2022/11/23 00:46:04;;;;;;;5.53;1.60;;;;;;;;;;510180;28;1051;-61
2022/11/23 00:46:24;;;;;;;5.82;1.67;;;;;;;;;;512733;28;2198;-61
2022/11/23 00:46:40;;;;;;;5.70;1.50;;;;;;;;;;514400;28;1223;-60
2022/11/23 00:46:55;;;;;;;4.90;1.43;;;;;;;;;;514430;28;1001;-60
2022/11/23 00:47:10;;;;;;;7.30;1.60;;;;;;;;;;514297;28;1189;-60
2022/11/23 00:47:25;;;;;;;7.20;1.63;;;;;;;;;;515002;28;1139;-60
2022/11/23 00:47:41;;;;;;;5.57;1.67;;;;;;;;;;510874;28;1389;-61
2022/11/23 00:47:56;;;;;;;6.03;1.70;;;;;;;;;;514638;28;1008;-61
2022/11/23 00:48:11;;;;;;;6.78;1.60;;;;;;;;;;513568;28;1199;-61
2022/11/23 00:48:26;;;;;;;6.33;1.57;;;;;;;;;;512852;28;1212;-61
2022/11/23 00:48:43;;;;;;;5.70;1.60;;;;;;;;;;513235;28;1051;-61
2022/11/23 00:48:59;;;;;;;7.90;1.70;;;;;;;;;;511314;28;1497;-61
2022/11/23 00:49:14;;;;;;;9.07;1.90;;;;;;;;;;510844;28;1268;-61
2022/11/23 00:49:32;;;;;;;7.67;1.60;;;;;;;;;;511375;28;1164;-60
2022/11/23 00:49:47;;;;;;;5.25;1.58;;;;;;;;;;511301;28;1346;-60
2022/11/23 00:50:03;;;;;;;6.80;1.90;;;;;;;;;;511383;28;1263;-60
2022/11/23 00:50:18;;;;;;;6.97;1.70;;;;;;;;;;510521;28;1372;-61
2022/11/23 00:50:34;;;;;;;6.83;1.50;;;;;;;;;;509904;28;1213;-61
2022/11/23 00:50:49;;;;;;;7.93;1.57;;;;;;;;;;509688;28;1141;-60
2022/11/23 00:51:07;;;;;;;6.47;1.57;;;;;;;;;;509287;28;1203;-61
2022/11/23 00:51:28;;;;;;;6.53;1.70;;;;;;;;;;511147;28;1195;-61
2022/11/23 00:51:44;;;;;;;4.93;1.60;;;;;;;;;;509264;28;1681;-61
2022/11/23 00:51:59;;;;;;;4.90;1.40;;;;;;;;;;512275;28;1104;-61
2022/11/23 00:52:14;;;;;;;5.82;1.42;;;;;;;;;;514295;28;1087;-61
2022/11/23 00:52:29;;;;;;;6.60;1.60;;;;;;;;;;513488;28;1172;-61
2022/11/23 00:52:45;;;;;;;6.50;1.50;;;;;;;;;;517085;28;1159;-61
2022/11/23 00:53:00;;;;;;;6.83;1.63;;;;;;;;;;514274;28;1209;-61
2022/11/23 00:53:15;;;;;;;7.72;1.90;;;;;;;;;;515376;28;1200;-60
2022/11/23 00:53:30;;;;;;;6.23;1.60;;;;;;;;;;514679;28;1135;-61
2022/11/23 00:53:46;;;;;;;5.13;1.40;;;;;;;;;;514230;28;1219;-61
2022/11/23 00:54:04;;;;;;;6.78;1.50;;;;;;;;;;514482;28;1226;-61
2022/11/23 00:54:19;;;;;;;6.88;1.60;;;;;;;;;;514629;28;1066;-61
2022/11/23 00:54:34;;;;;;;6.45;1.60;;;;;;;;;;512728;28;1213;-61
2022/11/23 00:54:49;;;;;;;6.10;1.53;;;;;;;;;;512991;28;1223;-61
2022/11/23 00:55:05;;;;;;;5.57;1.60;;;;;;;;;;513044;28;1222;-61
2022/11/23 00:55:20;;;;;;;5.70;1.60;;;;;;;;;;512492;28;1092;-61
2022/11/23 00:55:36;;;;;;;6.57;1.70;;;;;;;;;;512192;28;1221;-61
2022/11/23 00:55:52;;;;;;;8.23;1.90;;;;;;;;;;512061;28;1341;-61
2022/11/23 00:56:08;;;;;;;8.02;1.80;;;;;;;;;;512643;28;1076;-61
2022/11/23 00:56:26;;;;;;;7.03;1.70;;;;;;;;;;511128;28;1241;-61
2022/11/23 00:56:41;;;;;;;7.00;1.70;;;;;;;;;;509507;28;1514;-61
2022/11/23 00:56:57;;;;;;;7.50;1.60;;;;;;;;;;510740;28;1199;-61
2022/11/23 00:57:12;;;;;;;6.07;1.50;;;;;;;;;;511259;28;1178;-61
2022/11/23 00:57:27;;;;;;;5.65;1.50;;;;;;;;;;511578;28;1093;-61
2022/11/23 00:57:42;;;;;;;7.00;1.70;;;;;;;;;;511038;28;1177;-61
2022/11/23 00:57:57;;;;;;;7.33;1.60;;;;;;;;;;513123;28;1204;-61
2022/11/23 00:58:13;;;;;;;7.20;1.60;;;;;;;;;;513217;28;1135;-61
2022/11/23 00:58:28;;;;;;;9.45;1.88;;;;;;;;;;511123;28;1131;-61
2022/11/23 00:58:48;;;;;;;11.10;1.97;;;;;;;;;;509874;28;1195;-61
2022/11/23 00:59:03;;;;;;;9.13;1.88;;;;;;;;;;509780;28;1421;-61
2022/11/23 00:59:18;;;;;;;6.90;1.80;;;;;;;;;;512735;28;1214;-61
2022/11/23 00:59:34;;;;;;;6.37;1.57;;;;;;;;;;512998;28;1258;-61
2022/11/23 00:59:49;;;;;;;7.75;1.63;;;;;;;;;;509654;28;1135;-61
2022/11/23 01:00:06;;;;;;;9.40;1.80;;;;;;;;;;510050;28;1263;-61
2022/11/23 01:00:21;;;;;;;7.32;1.60;;;;;;;;;;512976;28;2092;-61
2022/11/23 01:00:36;;;;;;;7.43;1.60;;;;;;;;;;512442;28;1998;-61
2022/11/23 01:01:00;;;;;;;9.20;1.67;;;;;;;;;;511664;28;1248;-61
2022/11/23 01:01:18;;;;;;;7.03;1.60;;;;;;;;;;516233;28;1116;-61
2022/11/23 01:01:35;;;;;;;7.38;1.80;;;;;;;;;;515047;28;1151;-61
2022/11/23 01:01:51;;;;;;;7.38;1.70;;;;;;;;;;514530;28;1140;-61
2022/11/23 01:02:06;;;;;;;5.95;1.40;;;;;;;;;;515370;28;1171;-61
2022/11/23 01:02:21;;;;;;;8.13;1.60;;;;;;;;;;512415;28;1250;-61
2022/11/23 01:02:36;;;;;;;8.80;1.93;;;;;;;;;;510727;28;1200;-61
2022/11/23 01:02:52;;;;;;;7.33;1.90;;;;;;;;;;513952;28;1047;-61
2022/11/23 01:03:07;;;;;;;8.40;2.03;;;;;;;;;;513240;28;1228;-61
2022/11/23 01:03:22;;;;;;;9.47;2.03;;;;;;;;;;511511;28;1234;-61
2022/11/23 01:03:41;;;;;;;8.10;1.77;;;;;;;;;;512531;28;1623;-61
2022/11/23 01:03:57;;;;;;;8.43;1.67;;;;;;;;;;515548;28;1103;-61
2022/11/23 01:04:13;;;;;;;9.57;1.70;;;;;;;;;;514418;28;1182;-61
2022/11/23 01:04:29;;;;;;;8.27;1.80;;;;;;;;;;516298;28;1252;-61
2022/11/23 01:04:44;;;;;;;7.38;1.73;;;;;;;;;;515421;28;1182;-61
2022/11/23 01:04:59;;;;;;;6.80;1.77;;;;;;;;;;517269;28;1198;-61
2022/11/23 01:05:14;;;;;;;6.67;1.80;;;;;;;;;;517396;28;1135;-61
2022/11/23 01:05:30;;;;;;;7.00;1.80;;;;;;;;;;515473;28;1303;-61
2022/11/23 01:05:46;;;;;;;6.82;1.70;;;;;;;;;;517096;28;1245;-60
2022/11/23 01:06:13;;;;;;;6.70;1.70;;;;;;;;;;515869;28;1209;-61
2022/11/23 01:06:34;;;;;;;7.70;1.77;;;;;;;;;;515148;28;1125;-60
2022/11/23 01:06:49;;;;;;;6.85;1.75;;;;;;;;;;515074;28;1049;-61
2022/11/23 01:07:04;;;;;;;6.73;1.70;;;;;;;;;;513676;28;1187;-60
2022/11/23 01:07:19;;;;;;;6.27;1.70;;;;;;;;;;515376;28;1159;-60
2022/11/23 01:07:35;;;;;;;5.35;1.70;;;;;;;;;;512597;28;1201;-60
2022/11/23 01:07:50;;;;;;;5.07;1.70;;;;;;;;;;513907;28;1214;-60
2022/11/23 01:08:05;;;;;;;6.40;1.70;;;;;;;;;;514319;28;1108;-61
2022/11/23 01:08:21;;;;;;;8.23;1.60;;;;;;;;;;516195;28;1190;-61
2022/11/23 01:08:37;;;;;;;9.37;1.70;;;;;;;;;;513258;28;1378;-61
2022/11/23 01:08:56;;;;;;;9.45;1.80;;;;;;;;;;514376;28;1078;-61
2022/11/23 01:09:17;;;;;;;7.78;1.70;;;;;;;;;;515204;28;1048;-61
2022/11/23 01:09:32;;;;;;;5.75;1.50;;;;;;;;;;513605;28;1121;-61
2022/11/23 01:09:47;;;;;;;6.30;1.50;;;;;;;;;;515010;28;1115;-61
2022/11/23 01:10:03;;;;;;;6.32;1.60;;;;;;;;;;514663;28;1133;-61
2022/11/23 01:10:18;;;;;;;6.43;1.60;;;;;;;;;;511712;28;1099;-60
2022/11/23 01:10:33;;;;;;;6.47;1.60;;;;;;;;;;514369;28;1096;-60
2022/11/23 01:10:49;;;;;;;5.63;1.63;;;;;;;;;;515068;28;1386;-61
2022/11/23 01:11:06;;;;;;;6.33;1.67;;;;;;;;;;514673;28;1115;-61
2022/11/23 01:11:25;;;;;;;6.72;1.60;;;;;;;;;;513022;28;1254;-61
2022/11/23 01:11:40;;;;;;;7.13;1.70;;;;;;;;;;514778;28;1607;-61
2022/11/23 01:11:55;;;;;;;6.82;1.60;;;;;;;;;;515198;28;1215;-61
2022/11/23 01:12:11;;;;;;;5.63;1.50;;;;;;;;;;512322;28;1375;-61
2022/11/23 01:12:28;;;;;;;5.77;1.40;;;;;;;;;;512105;28;1711;-63
2022/11/23 01:12:43;;;;;;;5.22;1.50;;;;;;;;;;512663;28;1276;-60
2022/11/23 01:12:59;;;;;;;7.90;1.67;;;;;;;;;;513702;28;1328;-61
2022/11/23 01:13:14;;;;;;;8.82;1.70;;;;;;;;;;511822;28;1285;-61
2022/11/23 01:13:30;;;;;;;6.97;1.67;;;;;;;;;;512125;28;1150;-61
2022/11/23 01:13:46;;;;;;;7.43;1.80;;;;;;;;;;512987;28;1233;-61
2022/11/23 01:14:01;;;;;;;7.43;1.90;;;;;;;;;;512816;28;1196;-60
2022/11/23 01:14:17;;;;;;;7.32;1.75;;;;;;;;;;512916;28;1210;-60
2022/11/23 01:14:32;;;;;;;7.43;1.73;;;;;;;;;;511682;28;1278;-60
2022/11/23 01:14:47;;;;;;;7.50;2.15;;;;;;;;;;513134;28;1146;-61
2022/11/23 01:15:03;;;;;;;6.70;2.10;;;;;;;;;;512736;28;1194;-61
2022/11/23 01:15:18;;;;;;;8.45;2.13;;;;;;;;;;510981;28;1171;-60
2022/11/23 01:15:33;;;;;;;8.97;2.10;;;;;;;;;;509701;28;1256;-60
2022/11/23 01:15:49;;;;;;;7.43;1.67;;;;;;;;;;512923;28;1032;-60
2022/11/23 01:16:35;;;;;;;6.53;1.45;;;;;;;;;;512110;28;2118;-60
2022/11/23 01:16:51;;;;;;;7.88;1.50;;;;;;;;;;513016;28;1144;-61
2022/11/23 01:17:06;;;;;;;6.83;1.80;;;;;;;;;;511880;28;1024;-61
2022/11/23 01:17:21;;;;;;;6.18;1.73;;;;;;;;;;514663;28;1119;-61
2022/11/23 01:17:36;;;;;;;6.33;1.50;;;;;;;;;;514328;28;1242;-61
2022/11/23 01:17:52;;;;;;;6.27;1.50;;;;;;;;;;513261;28;1182;-61
2022/11/23 01:18:07;;;;;;;6.32;1.50;;;;;;;;;;514583;28;1461;-61
2022/11/23 01:18:23;;;;;;;6.37;1.60;;;;;;;;;;514239;28;1117;-61
2022/11/23 01:18:39;;;;;;;7.00;1.70;;;;;;;;;;511859;28;1384;-62
2022/11/23 01:18:56;;;;;;;8.75;2.00;;;;;;;;;;510986;28;1192;-61
2022/11/23 01:19:14;;;;;;;9.23;1.95;;;;;;;;;;512740;28;1030;-61
2022/11/23 01:19:29;;;;;;;7.82;1.80;;;;;;;;;;510700;28;1758;-61
2022/11/23 01:19:45;;;;;;;5.97;1.73;;;;;;;;;;509389;28;1337;-61
2022/11/23 01:20:00;;;;;;;5.57;1.50;;;;;;;;;;510748;28;1160;-61
2022/11/23 01:20:15;;;;;;;5.93;1.60;;;;;;;;;;510700;28;1356;-60
2022/11/23 01:20:30;;;;;;;6.40;1.60;;;;;;;;;;511504;28;1406;-60
2022/11/23 01:20:46;;;;;;;5.30;1.40;;;;;;;;;;515010;28;1930;-60
2022/11/23 01:21:01;;;;;;;5.80;1.42;;;;;;;;;;514274;28;1262;-60
2022/11/23 01:21:16;;;;;;;7.13;1.57;;;;;;;;;;513008;28;1477;-60
2022/11/23 01:21:33;;;;;;;6.53;1.40;;;;;;;;;;513234;28;1211;-60
2022/11/23 01:21:49;;;;;;;5.45;1.30;;;;;;;;;;511406;28;1179;-60
2022/11/23 01:22:04;;;;;;;6.00;1.40;;;;;;;;;;511503;28;1212;-60
2022/11/23 01:22:19;;;;;;;7.57;1.60;;;;;;;;;;512229;28;1428;-61
2022/11/23 01:22:34;;;;;;;7.40;1.60;;;;;;;;;;513276;28;1118;-61
2022/11/23 01:22:52;;;;;;;7.03;1.50;;;;;;;;;;511292;28;1208;-60
2022/11/23 01:23:07;;;;;;;5.75;1.40;;;;;;;;;;510298;28;1059;-60
2022/11/23 01:23:22;;;;;;;7.73;1.57;;;;;;;;;;513289;28;1115;-60
2022/11/23 01:23:37;;;;;;;8.60;1.73;;;;;;;;;;514312;28;1129;-60
2022/11/23 01:23:53;;;;;;;6.77;1.60;;;;;;;;;;512960;28;1030;-60
2022/11/23 01:24:20;;;;;;;6.87;1.63;;;;;;;;;;510776;28;1269;-60
2022/11/23 01:24:36;;;;;;;7.18;1.67;;;;;;;;;;511570;28;1085;-60
2022/11/23 01:24:51;;;;;;;8.05;1.63;;;;;;;;;;511546;28;1199;-60
2022/11/23 01:25:07;;;;;;;8.47;1.50;;;;;;;;;;510794;28;1191;-61
2022/11/23 01:25:22;;;;;;;7.07;1.58;;;;;;;;;;510472;28;1052;-61
2022/11/23 01:25:37;;;;;;;6.70;1.53;;;;;;;;;;509297;28;1305;-61
2022/11/23 01:25:53;;;;;;;7.77;1.57;;;;;;;;;;509431;28;1088;-61
2022/11/23 01:26:09;;;;;;;6.57;1.60;;;;;;;;;;510765;28;1025;-61
2022/11/23 01:26:25;;;;;;;6.88;1.63;;;;;;;;;;511519;28;1292;-61
2022/11/23 01:26:41;;;;;;;8.35;1.70;;;;;;;;;;511881;28;1402;-61
2022/11/23 01:26:56;;;;;;;8.57;1.58;;;;;;;;;;512416;28;1234;-61
2022/11/23 01:27:11;;;;;;;7.73;1.50;;;;;;;;;;513174;28;1151;-61
2022/11/23 01:27:27;;;;;;;6.93;1.40;;;;;;;;;;513034;28;1233;-61
2022/11/23 01:27:42;;;;;;;7.73;1.47;;;;;;;;;;508856;28;1404;-61
2022/11/23 01:27:57;;;;;;;7.43;1.50;;;;;;;;;;510628;28;1016;-61
2022/11/23 01:28:12;;;;;;;6.37;1.50;;;;;;;;;;508894;28;1287;-61
2022/11/23 01:28:28;;;;;;;6.75;1.50;;;;;;;;;;511855;28;1393;-61
2022/11/23 01:28:43;;;;;;;6.17;1.40;;;;;;;;;;512341;28;2228;-61
2022/11/23 01:28:58;;;;;;;6.27;1.40;;;;;;;;;;510740;28;1321;-61
2022/11/23 01:29:13;;;;;;;7.70;1.43;;;;;;;;;;512688;28;1242;-61
2022/11/23 01:29:29;;;;;;;6.75;1.40;;;;;;;;;;511626;28;1215;-61
2022/11/23 01:29:44;;;;;;;7.67;1.67;;;;;;;;;;514094;28;1179;-61
2022/11/23 01:29:59;;;;;;;8.67;1.80;;;;;;;;;;514225;28;1093;-61
2022/11/23 01:30:15;;;;;;;6.70;1.50;;;;;;;;;;514668;28;1610;-61
2022/11/23 01:30:30;;;;;;;7.63;1.52;;;;;;;;;;514542;28;1470;-61
2022/11/23 01:30:45;;;;;;;10.47;1.90;;;;;;;;;;512967;28;1223;-61
2022/11/23 01:31:10;;;;;;;10.13;1.83;;;;;;;;;;512733;28;1136;-61
2022/11/23 01:31:26;;;;;;;7.53;1.70;;;;;;;;;;510432;28;2184;-61
2022/11/23 01:31:41;;;;;;;5.85;1.55;;;;;;;;;;509173;28;1429;-61
2022/11/23 01:31:56;;;;;;;6.77;1.50;;;;;;;;;;510340;28;1084;-61
2022/11/23 01:32:12;;;;;;;7.93;1.67;;;;;;;;;;510842;28;1241;-61
2022/11/23 01:32:27;;;;;;;8.60;1.70;;;;;;;;;;510244;28;1025;-61
2022/11/23 01:32:42;;;;;;;8.80;1.50;;;;;;;;;;509384;28;1525;-61
2022/11/23 01:32:58;;;;;;;8.27;1.67;;;;;;;;;;511480;28;1128;-60
2022/11/23 01:33:13;;;;;;;7.57;1.77;;;;;;;;;;511004;28;1126;-61
2022/11/23 01:33:28;;;;;;;5.70;1.53;;;;;;;;;;511337;28;1181;-61
2022/11/23 01:33:44;;;;;;;6.75;1.55;;;;;;;;;;511114;28;1191;-61
2022/11/23 01:34:01;;;;;;;8.70;1.70;;;;;;;;;;509539;28;1634;-60
2022/11/23 01:34:17;;;;;;;7.45;1.63;;;;;;;;;;510877;28;1219;-60
2022/11/23 01:34:32;;;;;;;6.97;1.50;;;;;;;;;;510855;28;1132;-60
2022/11/23 01:34:47;;;;;;;7.10;1.50;;;;;;;;;;511011;28;1187;-61
2022/11/23 01:35:03;;;;;;;7.40;1.50;;;;;;;;;;508467;28;1092;-60
2022/11/23 01:35:18;;;;;;;7.47;1.40;;;;;;;;;;511045;28;1210;-60
2022/11/23 01:35:33;;;;;;;7.13;1.30;;;;;;;;;;512595;28;1164;-61
2022/11/23 01:35:48;;;;;;;6.95;1.40;;;;;;;;;;512204;28;1208;-60
2022/11/23 01:36:12;;;;;;;7.50;1.63;;;;;;;;;;513226;28;1190;-61
2022/11/23 01:36:33;;;;;;;7.28;1.65;;;;;;;;;;511756;28;1549;-61
2022/11/23 01:36:48;;;;;;;8.38;1.65;;;;;;;;;;513129;28;1223;-61
2022/11/23 01:37:03;;;;;;;7.22;1.60;;;;;;;;;;513116;28;1131;-61
2022/11/23 01:37:19;;;;;;;6.93;1.70;;;;;;;;;;512610;28;1155;-61
2022/11/23 01:37:34;;;;;;;9.43;1.77;;;;;;;;;;510556;28;1197;-61
2022/11/23 01:37:49;;;;;;;10.97;1.70;;;;;;;;;;511415;28;1201;-61
2022/11/23 01:38:05;;;;;;;7.55;1.50;;;;;;;;;;512875;28;1008;-61
2022/11/23 01:38:20;;;;;;;6.37;1.50;;;;;;;;;;512408;28;1317;-61
2022/11/23 01:38:35;;;;;;;9.30;1.63;;;;;;;;;;510672;28;1032;-61
2022/11/23 01:38:51;;;;;;;8.77;1.57;;;;;;;;;;510817;28;1271;-61
2022/11/23 01:39:07;;;;;;;7.63;1.58;;;;;;;;;;511158;28;1201;-61